METAR Data
IDs: Format: Raw Decoded Include TAF

Data at: 1007 UTC 07 Dec 2022

KMLB 070953Z AUTO 00000KT 10SM CLR 18/17 A3022 RMK AO2 SLP231 T01830172

KMLB 070520Z 0706/0806 VRB03KT P6SM FEW060
  FM071500 06008KT P6SM SCT025
  FM080000 07003KT P6SM SCT030


No METAR found for KTIX

KTIX 070520Z 0706/0806 VRB03KT P6SM FEW060
  FM071500 06008KT P6SM SCT025
  FM080000 VRB03KT P6SM FEW040 AMD NOT SKED TIL 071200


KCOF 070955Z AUTO 33005KT 10SM CLR 21/20 A3019 RMK AO2 SLP228 T02090195 $

TAF KCOF 070300Z 0703/0809 03010KT 9999 FEW020 FEW025 SCT035 QNH3019INS
  BECMG 0723/0724 03010KT 9999 FEW013 FEW020 SCT030 QNH3019INS TX25/0718Z TN21/0710Z LAST NO AMDS AFT 0705 NEXT 0711


KVRB 070953Z AUTO 34003KT CLR 18/18 A3022 RMK AO2 SLP230 T01780178 $

KVRB 070520Z 0706/0806 33003KT P6SM FEW030
  FM071500 06008KT P6SM SCT025
  FM080000 07004KT P6SM SCT030 AMD LTD TO CLD WIND AND WX